sensor_id;sensor_type;location;lat;lon;timestamp;P1;durP1;ratioP1;P2;durP2;ratioP2
18752;SDS011;9505;50.882;5.350;2022-08-24T00:00:07;7.40;;;2.60;;
18752;SDS011;9505;50.882;5.350;2022-08-24T00:02:35;6.22;;;2.35;;
18752;SDS011;9505;50.882;5.350;2022-08-24T00:05:01;7.55;;;2.47;;
18752;SDS011;9505;50.882;5.350;2022-08-24T00:07:27;3.05;;;2.05;;
18752;SDS011;9505;50.882;5.350;2022-08-24T00:09:53;5.38;;;2.58;;
18752;SDS011;9505;50.882;5.350;2022-08-24T00:12:18;5.13;;;2.45;;
18752;SDS011;9505;50.882;5.350;2022-08-24T00:14:44;6.53;;;2.65;;
18752;SDS011;9505;50.882;5.350;2022-08-24T00:17:10;4.65;;;2.20;;
18752;SDS011;9505;50.882;5.350;2022-08-24T00:19:37;5.13;;;2.38;;
18752;SDS011;9505;50.882;5.350;2022-08-24T00:22:03;6.57;;;2.85;;
18752;SDS011;9505;50.882;5.350;2022-08-24T00:24:29;6.97;;;2.17;;
18752;SDS011;9505;50.882;5.350;2022-08-24T00:26:55;8.30;;;2.30;;
18752;SDS011;9505;50.882;5.350;2022-08-24T00:29:21;8.23;;;2.80;;
18752;SDS011;9505;50.882;5.350;2022-08-24T00:31:47;8.35;;;2.28;;
18752;SDS011;9505;50.882;5.350;2022-08-24T00:34:13;11.80;;;2.67;;
18752;SDS011;9505;50.882;5.350;2022-08-24T00:36:41;7.50;;;2.90;;
18752;SDS011;9505;50.882;5.350;2022-08-24T00:39:08;6.07;;;2.53;;
18752;SDS011;9505;50.882;5.350;2022-08-24T00:41:34;5.45;;;2.50;;
18752;SDS011;9505;50.882;5.350;2022-08-24T00:44:04;6.03;;;2.65;;
18752;SDS011;9505;50.882;5.350;2022-08-24T00:46:41;8.65;;;2.85;;
18752;SDS011;9505;50.882;5.350;2022-08-24T00:52:06;9.30;;;2.72;;
18752;SDS011;9505;50.882;5.350;2022-08-24T00:54:39;7.95;;;3.00;;
18752;SDS011;9505;50.882;5.350;2022-08-24T00:57:08;6.85;;;3.15;;
18752;SDS011;9505;50.882;5.350;2022-08-24T00:59:37;8.30;;;2.70;;
18752;SDS011;9505;50.882;5.350;2022-08-24T01:02:08;9.13;;;2.80;;
18752;SDS011;9505;50.882;5.350;2022-08-24T01:04:42;6.03;;;2.08;;
18752;SDS011;9505;50.882;5.350;2022-08-24T01:07:14;7.80;;;3.30;;
18752;SDS011;9505;50.882;5.350;2022-08-24T01:09:40;5.55;;;2.72;;
18752;SDS011;9505;50.882;5.350;2022-08-24T01:12:06;6.65;;;2.63;;
18752;SDS011;9505;50.882;5.350;2022-08-24T01:14:34;14.95;;;3.92;;
18752;SDS011;9505;50.882;5.350;2022-08-24T01:17:00;10.02;;;3.60;;
18752;SDS011;9505;50.882;5.350;2022-08-24T01:19:46;11.02;;;4.28;;
18752;SDS011;9505;50.882;5.350;2022-08-24T01:22:21;8.68;;;3.38;;
18752;SDS011;9505;50.882;5.350;2022-08-24T01:25:02;6.53;;;2.78;;
18752;SDS011;9505;50.882;5.350;2022-08-24T01:27:29;7.43;;;3.08;;
18752;SDS011;9505;50.882;5.350;2022-08-24T01:29:56;8.50;;;3.10;;
18752;SDS011;9505;50.882;5.350;2022-08-24T01:32:25;8.48;;;3.42;;
18752;SDS011;9505;50.882;5.350;2022-08-24T01:34:52;8.35;;;3.35;;
18752;SDS011;9505;50.882;5.350;2022-08-24T01:37:18;11.10;;;3.10;;
18752;SDS011;9505;50.882;5.350;2022-08-24T01:39:45;10.75;;;3.25;;
18752;SDS011;9505;50.882;5.350;2022-08-24T01:42:12;10.63;;;3.60;;
18752;SDS011;9505;50.882;5.350;2022-08-24T01:44:39;7.63;;;3.28;;
18752;SDS011;9505;50.882;5.350;2022-08-24T01:47:06;8.82;;;3.30;;
18752;SDS011;9505;50.882;5.350;2022-08-24T01:49:35;6.88;;;2.78;;
18752;SDS011;9505;50.882;5.350;2022-08-24T01:52:04;11.38;;;3.83;;
18752;SDS011;9505;50.882;5.350;2022-08-24T01:54:31;6.57;;;2.95;;
18752;SDS011;9505;50.882;5.350;2022-08-24T01:56:58;12.02;;;3.40;;
18752;SDS011;9505;50.882;5.350;2022-08-24T01:59:24;5.53;;;2.90;;
18752;SDS011;9505;50.882;5.350;2022-08-24T02:01:54;10.85;;;3.75;;
18752;SDS011;9505;50.882;5.350;2022-08-24T02:04:23;7.30;;;3.13;;
18752;SDS011;9505;50.882;5.350;2022-08-24T02:06:48;7.97;;;3.60;;
18752;SDS011;9505;50.882;5.350;2022-08-24T02:09:15;8.05;;;3.13;;
18752;SDS011;9505;50.882;5.350;2022-08-24T02:11:40;6.93;;;3.20;;
18752;SDS011;9505;50.882;5.350;2022-08-24T02:14:07;7.90;;;3.25;;
18752;SDS011;9505;50.882;5.350;2022-08-24T02:16:33;8.23;;;3.33;;
18752;SDS011;9505;50.882;5.350;2022-08-24T02:18:58;9.73;;;3.33;;
18752;SDS011;9505;50.882;5.350;2022-08-24T02:21:24;9.73;;;3.15;;
18752;SDS011;9505;50.882;5.350;2022-08-24T02:23:50;11.15;;;3.60;;
18752;SDS011;9505;50.882;5.350;2022-08-24T02:26:16;7.40;;;3.28;;
18752;SDS011;9505;50.882;5.350;2022-08-24T02:28:42;7.13;;;3.17;;
18752;SDS011;9505;50.882;5.350;2022-08-24T02:31:08;10.20;;;3.03;;
18752;SDS011;9505;50.882;5.350;2022-08-24T02:33:36;6.60;;;2.85;;
18752;SDS011;9505;50.882;5.350;2022-08-24T02:36:03;6.50;;;3.00;;
18752;SDS011;9505;50.882;5.350;2022-08-24T02:38:31;7.47;;;3.40;;
18752;SDS011;9505;50.882;5.350;2022-08-24T02:40:56;8.60;;;3.88;;
18752;SDS011;9505;50.882;5.350;2022-08-24T02:43:23;14.48;;;4.78;;
18752;SDS011;9505;50.882;5.350;2022-08-24T02:45:49;11.57;;;4.18;;
18752;SDS011;9505;50.882;5.350;2022-08-24T02:48:15;10.23;;;3.85;;
18752;SDS011;9505;50.882;5.350;2022-08-24T02:50:43;9.05;;;3.95;;
18752;SDS011;9505;50.882;5.350;2022-08-24T02:53:11;6.38;;;3.80;;
18752;SDS011;9505;50.882;5.350;2022-08-24T02:55:39;6.22;;;3.45;;
18752;SDS011;9505;50.882;5.350;2022-08-24T02:58:06;10.38;;;4.20;;
18752;SDS011;9505;50.882;5.350;2022-08-24T03:00:33;12.57;;;4.72;;
18752;SDS011;9505;50.882;5.350;2022-08-24T03:03:00;10.10;;;4.03;;
18752;SDS011;9505;50.882;5.350;2022-08-24T03:05:27;8.35;;;3.80;;
18752;SDS011;9505;50.882;5.350;2022-08-24T03:07:53;9.15;;;3.45;;
18752;SDS011;9505;50.882;5.350;2022-08-24T03:10:19;9.77;;;4.10;;
18752;SDS011;9505;50.882;5.350;2022-08-24T03:12:46;9.95;;;3.95;;
18752;SDS011;9505;50.882;5.350;2022-08-24T03:15:13;14.80;;;4.75;;
18752;SDS011;9505;50.882;5.350;2022-08-24T03:17:40;13.57;;;4.90;;
18752;SDS011;9505;50.882;5.350;2022-08-24T03:20:08;10.48;;;3.53;;
18752;SDS011;9505;50.882;5.350;2022-08-24T03:22:36;8.57;;;3.47;;
18752;SDS011;9505;50.882;5.350;2022-08-24T03:25:03;11.40;;;4.07;;
18752;SDS011;9505;50.882;5.350;2022-08-24T03:27:30;6.80;;;3.45;;
18752;SDS011;9505;50.882;5.350;2022-08-24T03:29:56;9.40;;;3.63;;
18752;SDS011;9505;50.882;5.350;2022-08-24T03:32:22;11.52;;;4.13;;
18752;SDS011;9505;50.882;5.350;2022-08-24T03:34:47;9.63;;;3.97;;
18752;SDS011;9505;50.882;5.350;2022-08-24T03:37:13;9.45;;;3.72;;
18752;SDS011;9505;50.882;5.350;2022-08-24T03:39:40;7.50;;;3.42;;
18752;SDS011;9505;50.882;5.350;2022-08-24T03:42:06;9.32;;;4.03;;
18752;SDS011;9505;50.882;5.350;2022-08-24T03:44:32;11.48;;;4.28;;
18752;SDS011;9505;50.882;5.350;2022-08-24T03:46:57;9.68;;;3.85;;
18752;SDS011;9505;50.882;5.350;2022-08-24T03:49:24;9.73;;;4.13;;
18752;SDS011;9505;50.882;5.350;2022-08-24T03:51:50;9.45;;;4.38;;
18752;SDS011;9505;50.882;5.350;2022-08-24T03:54:16;6.07;;;3.30;;
18752;SDS011;9505;50.882;5.350;2022-08-24T03:56:43;15.60;;;4.78;;
18752;SDS011;9505;50.882;5.350;2022-08-24T03:59:09;11.63;;;4.40;;
18752;SDS011;9505;50.882;5.350;2022-08-24T04:01:36;18.38;;;4.25;;
18752;SDS011;9505;50.882;5.350;2022-08-24T04:04:03;11.00;;;3.65;;
18752;SDS011;9505;50.882;5.350;2022-08-24T04:06:29;11.48;;;4.30;;
18752;SDS011;9505;50.882;5.350;2022-08-24T04:08:55;7.30;;;3.50;;
18752;SDS011;9505;50.882;5.350;2022-08-24T04:11:22;14.70;;;3.83;;
18752;SDS011;9505;50.882;5.350;2022-08-24T04:13:50;10.20;;;3.92;;
18752;SDS011;9505;50.882;5.350;2022-08-24T04:16:18;13.63;;;4.00;;
18752;SDS011;9505;50.882;5.350;2022-08-24T04:18:45;10.02;;;3.65;;
18752;SDS011;9505;50.882;5.350;2022-08-24T04:21:22;9.80;;;3.55;;
18752;SDS011;9505;50.882;5.350;2022-08-24T04:23:49;9.85;;;3.58;;
18752;SDS011;9505;50.882;5.350;2022-08-24T04:26:20;7.40;;;3.30;;
18752;SDS011;9505;50.882;5.350;2022-08-24T04:28:47;10.10;;;3.33;;
18752;SDS011;9505;50.882;5.350;2022-08-24T04:31:13;15.65;;;3.80;;
18752;SDS011;9505;50.882;5.350;2022-08-24T04:33:39;8.68;;;3.65;;
18752;SDS011;9505;50.882;5.350;2022-08-24T04:36:06;10.30;;;4.13;;
18752;SDS011;9505;50.882;5.350;2022-08-24T04:38:33;10.95;;;3.78;;
18752;SDS011;9505;50.882;5.350;2022-08-24T04:40:59;7.90;;;3.30;;
18752;SDS011;9505;50.882;5.350;2022-08-24T04:43:29;8.48;;;3.22;;
18752;SDS011;9505;50.882;5.350;2022-08-24T04:45:54;15.45;;;4.00;;
18752;SDS011;9505;50.882;5.350;2022-08-24T04:48:20;5.53;;;2.75;;
18752;SDS011;9505;50.882;5.350;2022-08-24T04:50:46;7.70;;;3.63;;
18752;SDS011;9505;50.882;5.350;2022-08-24T04:53:12;8.40;;;3.80;;
18752;SDS011;9505;50.882;5.350;2022-08-24T04:55:45;9.43;;;3.95;;
18752;SDS011;9505;50.882;5.350;2022-08-24T04:58:13;11.88;;;3.92;;
18752;SDS011;9505;50.882;5.350;2022-08-24T05:00:39;5.03;;;2.63;;
18752;SDS011;9505;50.882;5.350;2022-08-24T05:03:05;5.22;;;2.95;;
18752;SDS011;9505;50.882;5.350;2022-08-24T05:05:31;6.47;;;2.85;;
18752;SDS011;9505;50.882;5.350;2022-08-24T05:07:57;6.22;;;2.90;;
18752;SDS011;9505;50.882;5.350;2022-08-24T05:10:23;7.30;;;2.97;;
18752;SDS011;9505;50.882;5.350;2022-08-24T05:12:49;9.95;;;3.40;;
18752;SDS011;9505;50.882;5.350;2022-08-24T05:15:14;8.82;;;4.07;;
18752;SDS011;9505;50.882;5.350;2022-08-24T05:17:40;6.45;;;3.22;;
18752;SDS011;9505;50.882;5.350;2022-08-24T05:20:07;9.50;;;3.95;;
18752;SDS011;9505;50.882;5.350;2022-08-24T05:22:34;11.52;;;4.25;;
18752;SDS011;9505;50.882;5.350;2022-08-24T05:25:00;8.98;;;3.35;;
18752;SDS011;9505;50.882;5.350;2022-08-24T05:27:26;8.95;;;3.92;;
18752;SDS011;9505;50.882;5.350;2022-08-24T05:29:52;16.60;;;3.63;;
18752;SDS011;9505;50.882;5.350;2022-08-24T05:32:18;10.88;;;3.35;;
18752;SDS011;9505;50.882;5.350;2022-08-24T05:34:44;6.80;;;2.78;;
18752;SDS011;9505;50.882;5.350;2022-08-24T05:37:10;5.22;;;2.28;;
18752;SDS011;9505;50.882;5.350;2022-08-24T05:39:35;5.82;;;2.45;;
18752;SDS011;9505;50.882;5.350;2022-08-24T05:42:02;5.88;;;1.92;;
18752;SDS011;9505;50.882;5.350;2022-08-24T05:44:28;10.65;;;2.20;;
18752;SDS011;9505;50.882;5.350;2022-08-24T05:46:55;5.47;;;1.98;;
18752;SDS011;9505;50.882;5.350;2022-08-24T05:49:22;6.28;;;2.20;;
18752;SDS011;9505;50.882;5.350;2022-08-24T05:51:48;3.97;;;1.98;;
18752;SDS011;9505;50.882;5.350;2022-08-24T05:54:14;5.05;;;1.80;;
18752;SDS011;9505;50.882;5.350;2022-08-24T05:56:39;9.63;;;2.30;;
18752;SDS011;9505;50.882;5.350;2022-08-24T05:59:05;5.57;;;2.00;;
18752;SDS011;9505;50.882;5.350;2022-08-24T06:01:31;8.85;;;2.00;;
18752;SDS011;9505;50.882;5.350;2022-08-24T06:03:57;9.15;;;1.73;;
18752;SDS011;9505;50.882;5.350;2022-08-24T06:06:24;8.63;;;2.17;;
18752;SDS011;9505;50.882;5.350;2022-08-24T06:08:51;7.70;;;2.85;;
18752;SDS011;9505;50.882;5.350;2022-08-24T06:11:24;9.68;;;3.05;;
18752;SDS011;9505;50.882;5.350;2022-08-24T06:13:51;6.95;;;2.80;;
18752;SDS011;9505;50.882;5.350;2022-08-24T06:16:18;10.30;;;3.38;;
18752;SDS011;9505;50.882;5.350;2022-08-24T06:18:44;4.60;;;2.30;;
18752;SDS011;9505;50.882;5.350;2022-08-24T06:21:12;6.35;;;3.00;;
18752;SDS011;9505;50.882;5.350;2022-08-24T06:23:40;9.35;;;3.40;;
18752;SDS011;9505;50.882;5.350;2022-08-24T06:26:08;10.40;;;3.40;;
18752;SDS011;9505;50.882;5.350;2022-08-24T06:28:53;4.00;;;2.40;;
18752;SDS011;9505;50.882;5.350;2022-08-24T06:31:20;10.23;;;4.38;;
18752;SDS011;9505;50.882;5.350;2022-08-24T06:33:46;11.63;;;4.28;;
18752;SDS011;9505;50.882;5.350;2022-08-24T06:36:12;11.07;;;4.13;;
18752;SDS011;9505;50.882;5.350;2022-08-24T06:38:38;9.40;;;4.25;;
18752;SDS011;9505;50.882;5.350;2022-08-24T06:41:04;10.25;;;3.67;;
18752;SDS011;9505;50.882;5.350;2022-08-24T06:43:30;10.73;;;4.10;;
18752;SDS011;9505;50.882;5.350;2022-08-24T06:45:56;13.48;;;4.63;;
18752;SDS011;9505;50.882;5.350;2022-08-24T06:48:22;13.00;;;5.35;;
18752;SDS011;9505;50.882;5.350;2022-08-24T06:50:48;13.95;;;5.70;;
18752;SDS011;9505;50.882;5.350;2022-08-24T06:53:14;10.70;;;4.70;;
18752;SDS011;9505;50.882;5.350;2022-08-24T06:55:50;16.85;;;6.05;;
18752;SDS011;9505;50.882;5.350;2022-08-24T06:58:18;11.02;;;4.88;;
18752;SDS011;9505;50.882;5.350;2022-08-24T07:00:45;18.45;;;6.97;;
18752;SDS011;9505;50.882;5.350;2022-08-24T07:03:11;12.52;;;5.68;;
18752;SDS011;9505;50.882;5.350;2022-08-24T07:05:37;12.93;;;5.60;;
18752;SDS011;9505;50.882;5.350;2022-08-24T07:08:04;13.88;;;4.95;;
18752;SDS011;9505;50.882;5.350;2022-08-24T07:10:30;18.33;;;7.13;;
18752;SDS011;9505;50.882;5.350;2022-08-24T07:12:56;16.40;;;7.20;;
18752;SDS011;9505;50.882;5.350;2022-08-24T07:15:22;17.27;;;7.90;;
18752;SDS011;9505;50.882;5.350;2022-08-24T07:17:48;12.38;;;6.03;;
18752;SDS011;9505;50.882;5.350;2022-08-24T07:20:15;9.75;;;5.70;;
18752;SDS011;9505;50.882;5.350;2022-08-24T07:22:41;17.38;;;9.48;;
18752;SDS011;9505;50.882;5.350;2022-08-24T07:25:08;16.73;;;7.63;;
18752;SDS011;9505;50.882;5.350;2022-08-24T07:27:35;11.70;;;6.78;;
18752;SDS011;9505;50.882;5.350;2022-08-24T07:30:01;12.73;;;6.57;;
18752;SDS011;9505;50.882;5.350;2022-08-24T07:32:27;12.65;;;6.43;;
18752;SDS011;9505;50.882;5.350;2022-08-24T07:34:53;12.05;;;6.00;;
18752;SDS011;9505;50.882;5.350;2022-08-24T07:37:18;10.98;;;6.15;;
18752;SDS011;9505;50.882;5.350;2022-08-24T07:39:44;13.38;;;6.15;;
18752;SDS011;9505;50.882;5.350;2022-08-24T07:42:10;11.25;;;5.93;;
18752;SDS011;9505;50.882;5.350;2022-08-24T07:44:36;20.25;;;7.18;;
18752;SDS011;9505;50.882;5.350;2022-08-24T07:47:03;9.43;;;4.95;;
18752;SDS011;9505;50.882;5.350;2022-08-24T07:49:29;18.33;;;7.40;;
18752;SDS011;9505;50.882;5.350;2022-08-24T07:51:56;19.95;;;7.55;;
18752;SDS011;9505;50.882;5.350;2022-08-24T07:54:22;9.38;;;4.95;;
18752;SDS011;9505;50.882;5.350;2022-08-24T07:56:47;10.93;;;4.15;;
18752;SDS011;9505;50.882;5.350;2022-08-24T07:59:14;11.13;;;5.38;;
18752;SDS011;9505;50.882;5.350;2022-08-24T08:01:40;11.52;;;4.88;;
18752;SDS011;9505;50.882;5.350;2022-08-24T08:04:06;13.43;;;5.75;;
18752;SDS011;9505;50.882;5.350;2022-08-24T08:06:32;19.92;;;5.03;;
18752;SDS011;9505;50.882;5.350;2022-08-24T08:08:58;13.25;;;5.22;;
18752;SDS011;9505;50.882;5.350;2022-08-24T08:11:23;17.98;;;6.00;;
18752;SDS011;9505;50.882;5.350;2022-08-24T08:13:49;8.88;;;3.05;;
18752;SDS011;9505;50.882;5.350;2022-08-24T08:16:15;14.57;;;5.30;;
18752;SDS011;9505;50.882;5.350;2022-08-24T08:18:41;10.25;;;4.05;;
18752;SDS011;9505;50.882;5.350;2022-08-24T08:21:07;8.70;;;4.00;;
18752;SDS011;9505;50.882;5.350;2022-08-24T08:23:55;14.35;;;4.60;;
18752;SDS011;9505;50.882;5.350;2022-08-24T08:26:40;12.27;;;4.53;;
18752;SDS011;9505;50.882;5.350;2022-08-24T08:29:07;7.85;;;4.10;;
18752;SDS011;9505;50.882;5.350;2022-08-24T08:31:34;17.17;;;4.23;;
18752;SDS011;9505;50.882;5.350;2022-08-24T08:34:02;10.25;;;3.70;;
18752;SDS011;9505;50.882;5.350;2022-08-24T08:36:28;10.63;;;3.75;;
18752;SDS011;9505;50.882;5.350;2022-08-24T08:38:54;9.18;;;3.88;;
18752;SDS011;9505;50.882;5.350;2022-08-24T08:44:18;9.93;;;3.75;;
18752;SDS011;9505;50.882;5.350;2022-08-24T08:47:05;8.88;;;3.03;;
18752;SDS011;9505;50.882;5.350;2022-08-24T09:29:46;6.55;;;1.70;;
18752;SDS011;9505;50.882;5.350;2022-08-24T09:35:05;6.03;;;1.73;;
18752;SDS011;9505;50.882;5.350;2022-08-24T09:52:01;5.88;;;1.50;;
18752;SDS011;9505;50.882;5.350;2022-08-24T10:03:57;4.15;;;1.25;;
18752;SDS011;9505;50.882;5.350;2022-08-24T10:06:46;6.95;;;1.55;;
18752;SDS011;9505;50.882;5.350;2022-08-24T10:14:57;7.90;;;2.03;;
18752;SDS011;9505;50.882;5.350;2022-08-24T10:20:34;4.18;;;1.20;;
18752;SDS011;9505;50.882;5.350;2022-08-24T10:23:16;8.77;;;1.88;;
18752;SDS011;9505;50.882;5.350;2022-08-24T10:31:18;5.18;;;1.67;;
18752;SDS011;9505;50.882;5.350;2022-08-24T10:34:05;11.70;;;2.22;;
18752;SDS011;9505;50.882;5.350;2022-08-24T10:53:19;5.82;;;1.90;;
18752;SDS011;9505;50.882;5.350;2022-08-24T10:56:35;10.38;;;2.13;;
18752;SDS011;9505;50.882;5.350;2022-08-24T10:58:51;10.82;;;2.30;;
18752;SDS011;9505;50.882;5.350;2022-08-24T11:03:56;11.75;;;2.53;;
18752;SDS011;9505;50.882;5.350;2022-08-24T11:11:44;9.95;;;2.10;;
18752;SDS011;9505;50.882;5.350;2022-08-24T11:16:41;9.43;;;2.22;;
18752;SDS011;9505;50.882;5.350;2022-08-24T11:22:56;12.07;;;2.83;;
18752;SDS011;9505;50.882;5.350;2022-08-24T11:25:19;5.13;;;1.63;;
18752;SDS011;9505;50.882;5.350;2022-08-24T11:27:56;11.27;;;2.20;;
18752;SDS011;9505;50.882;5.350;2022-08-24T11:30:27;11.35;;;2.00;;
18752;SDS011;9505;50.882;5.350;2022-08-24T11:32:59;12.18;;;2.30;;
18752;SDS011;9505;50.882;5.350;2022-08-24T11:35:28;5.47;;;1.77;;
18752;SDS011;9505;50.882;5.350;2022-08-24T11:38:23;13.57;;;2.28;;
18752;SDS011;9505;50.882;5.350;2022-08-24T11:41:45;9.40;;;2.38;;
18752;SDS011;9505;50.882;5.350;2022-08-24T11:43:51;6.13;;;1.88;;
18752;SDS011;9505;50.882;5.350;2022-08-24T12:00:35;7.38;;;1.85;;
18752;SDS011;9505;50.882;5.350;2022-08-24T12:12:00;12.60;;;3.30;;
18752;SDS011;9505;50.882;5.350;2022-08-24T12:14:39;6.30;;;1.90;;
18752;SDS011;9505;50.882;5.350;2022-08-24T12:20:23;10.40;;;2.50;;
18752;SDS011;9505;50.882;5.350;2022-08-24T12:22:57;8.63;;;2.38;;
18752;SDS011;9505;50.882;5.350;2022-08-24T12:25:26;16.33;;;3.55;;
18752;SDS011;9505;50.882;5.350;2022-08-24T12:28:15;10.45;;;2.60;;
18752;SDS011;9505;50.882;5.350;2022-08-24T12:30:49;9.52;;;2.67;;
18752;SDS011;9505;50.882;5.350;2022-08-24T12:33:16;10.60;;;2.67;;
18752;SDS011;9505;50.882;5.350;2022-08-24T12:35:45;3.67;;;1.65;;
18752;SDS011;9505;50.882;5.350;2022-08-24T12:38:25;9.43;;;2.10;;
18752;SDS011;9505;50.882;5.350;2022-08-24T12:41:14;10.95;;;2.25;;
18752;SDS011;9505;50.882;5.350;2022-08-24T12:43:52;11.13;;;1.90;;
18752;SDS011;9505;50.882;5.350;2022-08-24T12:46:24;8.57;;;2.13;;
18752;SDS011;9505;50.882;5.350;2022-08-24T12:55:00;15.32;;;2.70;;
18752;SDS011;9505;50.882;5.350;2022-08-24T13:00:32;5.78;;;2.10;;
18752;SDS011;9505;50.882;5.350;2022-08-24T13:03:02;17.88;;;2.97;;
18752;SDS011;9505;50.882;5.350;2022-08-24T13:05:37;7.30;;;2.08;;
18752;SDS011;9505;50.882;5.350;2022-08-24T13:08:21;14.80;;;3.10;;
18752;SDS011;9505;50.882;5.350;2022-08-24T13:11:33;10.07;;;2.15;;
18752;SDS011;9505;50.882;5.350;2022-08-24T13:17:19;11.82;;;2.42;;
18752;SDS011;9505;50.882;5.350;2022-08-24T13:21:56;6.15;;;2.00;;
18752;SDS011;9505;50.882;5.350;2022-08-24T13:26:54;6.25;;;2.03;;
18752;SDS011;9505;50.882;5.350;2022-08-24T13:32:44;12.65;;;2.42;;
18752;SDS011;9505;50.882;5.350;2022-08-24T13:35:31;10.95;;;2.75;;
18752;SDS011;9505;50.882;5.350;2022-08-24T13:40:48;9.90;;;2.25;;
18752;SDS011;9505;50.882;5.350;2022-08-24T13:43:18;8.60;;;2.35;;
18752;SDS011;9505;50.882;5.350;2022-08-24T13:45:58;7.13;;;1.90;;
18752;SDS011;9505;50.882;5.350;2022-08-24T14:04:53;10.65;;;2.53;;
18752;SDS011;9505;50.882;5.350;2022-08-24T14:24:37;6.90;;;2.03;;
18752;SDS011;9505;50.882;5.350;2022-08-24T14:33:11;5.85;;;1.88;;
18752;SDS011;9505;50.882;5.350;2022-08-24T14:35:43;9.57;;;2.63;;
18752;SDS011;9505;50.882;5.350;2022-08-24T14:38:53;11.57;;;2.10;;
18752;SDS011;9505;50.882;5.350;2022-08-24T14:53:06;8.10;;;2.70;;
18752;SDS011;9505;50.882;5.350;2022-08-24T14:58:57;8.63;;;1.80;;
18752;SDS011;9505;50.882;5.350;2022-08-24T15:01:44;40.40;;;7.72;;
18752;SDS011;9505;50.882;5.350;2022-08-24T15:06:51;13.68;;;2.67;;
18752;SDS011;9505;50.882;5.350;2022-08-24T15:09:23;9.93;;;2.65;;
18752;SDS011;9505;50.882;5.350;2022-08-24T15:11:51;21.95;;;5.20;;
18752;SDS011;9505;50.882;5.350;2022-08-24T15:14:37;7.57;;;2.38;;
18752;SDS011;9505;50.882;5.350;2022-08-24T15:17:11;8.32;;;2.22;;
18752;SDS011;9505;50.882;5.350;2022-08-24T15:28:12;31.98;;;6.57;;
18752;SDS011;9505;50.882;5.350;2022-08-24T15:33:33;11.40;;;2.63;;
18752;SDS011;9505;50.882;5.350;2022-08-24T15:36:15;15.60;;;3.63;;
18752;SDS011;9505;50.882;5.350;2022-08-24T15:38:42;9.95;;;2.75;;
18752;SDS011;9505;50.882;5.350;2022-08-24T15:46:21;12.88;;;3.47;;
18752;SDS011;9505;50.882;5.350;2022-08-24T15:49:05;12.15;;;2.83;;
18752;SDS011;9505;50.882;5.350;2022-08-24T15:51:51;24.00;;;5.20;;
18752;SDS011;9505;50.882;5.350;2022-08-24T15:56:47;28.02;;;5.97;;
18752;SDS011;9505;50.882;5.350;2022-08-24T16:04:51;10.75;;;2.42;;
18752;SDS011;9505;50.882;5.350;2022-08-24T16:10:32;14.48;;;2.83;;
18752;SDS011;9505;50.882;5.350;2022-08-24T16:15:47;19.55;;;4.57;;
18752;SDS011;9505;50.882;5.350;2022-08-24T16:21:37;8.13;;;2.65;;
18752;SDS011;9505;50.882;5.350;2022-08-24T16:24:07;29.70;;;5.85;;
18752;SDS011;9505;50.882;5.350;2022-08-24T16:32:08;10.25;;;2.90;;
18752;SDS011;9505;50.882;5.350;2022-08-24T16:34:42;25.75;;;5.18;;
18752;SDS011;9505;50.882;5.350;2022-08-24T16:37:11;14.90;;;3.80;;
18752;SDS011;9505;50.882;5.350;2022-08-24T16:39:38;7.47;;;2.22;;
18752;SDS011;9505;50.882;5.350;2022-08-24T16:42:04;20.70;;;4.50;;
18752;SDS011;9505;50.882;5.350;2022-08-24T16:44:34;30.42;;;6.85;;
18752;SDS011;9505;50.882;5.350;2022-08-24T16:47:05;23.20;;;4.75;;
18752;SDS011;9505;50.882;5.350;2022-08-24T16:49:31;14.85;;;3.85;;
18752;SDS011;9505;50.882;5.350;2022-08-24T16:51:57;7.85;;;2.25;;
18752;SDS011;9505;50.882;5.350;2022-08-24T16:54:24;29.67;;;5.80;;
18752;SDS011;9505;50.882;5.350;2022-08-24T16:56:51;36.50;;;7.30;;
18752;SDS011;9505;50.882;5.350;2022-08-24T16:59:19;21.60;;;4.40;;
18752;SDS011;9505;50.882;5.350;2022-08-24T17:01:49;12.98;;;2.83;;
18752;SDS011;9505;50.882;5.350;2022-08-24T17:04:15;13.38;;;2.90;;
18752;SDS011;9505;50.882;5.350;2022-08-24T17:06:41;25.05;;;5.03;;
18752;SDS011;9505;50.882;5.350;2022-08-24T17:09:07;22.40;;;4.20;;
18752;SDS011;9505;50.882;5.350;2022-08-24T17:11:32;13.75;;;2.70;;
18752;SDS011;9505;50.882;5.350;2022-08-24T17:14:00;20.85;;;3.25;;
18752;SDS011;9505;50.882;5.350;2022-08-24T17:16:26;28.52;;;5.65;;
18752;SDS011;9505;50.882;5.350;2022-08-24T17:18:52;20.77;;;4.07;;
18752;SDS011;9505;50.882;5.350;2022-08-24T17:21:18;7.32;;;2.20;;
18752;SDS011;9505;50.882;5.350;2022-08-24T17:23:45;25.85;;;4.80;;
18752;SDS011;9505;50.882;5.350;2022-08-24T17:26:12;24.45;;;4.85;;
18752;SDS011;9505;50.882;5.350;2022-08-24T17:28:41;20.08;;;4.25;;
18752;SDS011;9505;50.882;5.350;2022-08-24T17:31:08;8.32;;;2.63;;
18752;SDS011;9505;50.882;5.350;2022-08-24T17:33:34;23.73;;;4.50;;
18752;SDS011;9505;50.882;5.350;2022-08-24T17:36:00;25.73;;;5.63;;
18752;SDS011;9505;50.882;5.350;2022-08-24T17:38:29;24.65;;;5.13;;
18752;SDS011;9505;50.882;5.350;2022-08-24T17:40:55;7.18;;;3.00;;
18752;SDS011;9505;50.882;5.350;2022-08-24T17:43:21;15.65;;;3.78;;
18752;SDS011;9505;50.882;5.350;2022-08-24T17:45:48;29.58;;;6.00;;
18752;SDS011;9505;50.882;5.350;2022-08-24T17:48:18;27.55;;;5.47;;
18752;SDS011;9505;50.882;5.350;2022-08-24T17:50:48;17.25;;;3.88;;
18752;SDS011;9505;50.882;5.350;2022-08-24T17:53:13;7.75;;;2.05;;
18752;SDS011;9505;50.882;5.350;2022-08-24T17:55:39;31.25;;;6.03;;
18752;SDS011;9505;50.882;5.350;2022-08-24T17:58:05;26.95;;;5.68;;
18752;SDS011;9505;50.882;5.350;2022-08-24T18:00:30;10.38;;;2.63;;
18752;SDS011;9505;50.882;5.350;2022-08-24T18:02:56;15.93;;;3.63;;
18752;SDS011;9505;50.882;5.350;2022-08-24T18:05:21;28.00;;;5.72;;
18752;SDS011;9505;50.882;5.350;2022-08-24T18:07:48;16.75;;;3.55;;
18752;SDS011;9505;50.882;5.350;2022-08-24T18:10:18;14.65;;;3.20;;
18752;SDS011;9505;50.882;5.350;2022-08-24T18:12:46;12.52;;;2.85;;
18752;SDS011;9505;50.882;5.350;2022-08-24T18:15:12;30.95;;;6.22;;
18752;SDS011;9505;50.882;5.350;2022-08-24T18:17:39;26.45;;;5.53;;
18752;SDS011;9505;50.882;5.350;2022-08-24T18:20:08;12.57;;;3.08;;
18752;SDS011;9505;50.882;5.350;2022-08-24T18:22:35;10.32;;;2.97;;
18752;SDS011;9505;50.882;5.350;2022-08-24T18:25:08;6.60;;;2.15;;
18752;SDS011;9505;50.882;5.350;2022-08-24T18:27:38;9.70;;;2.67;;
18752;SDS011;9505;50.882;5.350;2022-08-24T18:30:05;8.30;;;2.13;;
18752;SDS011;9505;50.882;5.350;2022-08-24T18:32:44;5.50;;;2.17;;
18752;SDS011;9505;50.882;5.350;2022-08-24T18:35:10;8.85;;;2.42;;
18752;SDS011;9505;50.882;5.350;2022-08-24T18:37:35;7.25;;;2.47;;
18752;SDS011;9505;50.882;5.350;2022-08-24T18:40:02;9.30;;;2.40;;
18752;SDS011;9505;50.882;5.350;2022-08-24T18:42:28;7.25;;;2.25;;
18752;SDS011;9505;50.882;5.350;2022-08-24T18:44:54;9.68;;;2.63;;
18752;SDS011;9505;50.882;5.350;2022-08-24T18:47:19;10.63;;;3.00;;
18752;SDS011;9505;50.882;5.350;2022-08-24T18:49:45;10.95;;;2.85;;
18752;SDS011;9505;50.882;5.350;2022-08-24T18:52:12;8.10;;;2.67;;
18752;SDS011;9505;50.882;5.350;2022-08-24T18:54:41;15.18;;;3.65;;
18752;SDS011;9505;50.882;5.350;2022-08-24T18:57:08;5.50;;;1.95;;
18752;SDS011;9505;50.882;5.350;2022-08-24T18:59:35;7.07;;;2.20;;
18752;SDS011;9505;50.882;5.350;2022-08-24T19:02:08;8.18;;;3.00;;
18752;SDS011;9505;50.882;5.350;2022-08-24T19:04:54;8.63;;;3.08;;
18752;SDS011;9505;50.882;5.350;2022-08-24T19:07:21;4.65;;;2.17;;
18752;SDS011;9505;50.882;5.350;2022-08-24T19:09:47;6.82;;;2.65;;
18752;SDS011;9505;50.882;5.350;2022-08-24T19:12:14;7.78;;;2.53;;
18752;SDS011;9505;50.882;5.350;2022-08-24T19:14:40;12.05;;;3.10;;
18752;SDS011;9505;50.882;5.350;2022-08-24T19:17:05;13.45;;;3.58;;
18752;SDS011;9505;50.882;5.350;2022-08-24T19:19:31;6.07;;;2.72;;
18752;SDS011;9505;50.882;5.350;2022-08-24T19:21:58;8.57;;;2.63;;
18752;SDS011;9505;50.882;5.350;2022-08-24T19:24:25;9.05;;;3.25;;
18752;SDS011;9505;50.882;5.350;2022-08-24T19:26:52;9.25;;;2.58;;
18752;SDS011;9505;50.882;5.350;2022-08-24T19:29:18;7.75;;;2.45;;